Startpagina
METAR-TAF:

METAR-TAF

Vliegvelden :

Internationale Luchthaven Baghdad

Bagdad, Irak

breedte: 33-15-45N, lengte: 44-14-04E, hoogte: 35 m

Actueel weer

Dit bericht is 38 minuten geleden gemaakt, om 23:00 UTC
Wind 3 kt uit het noordwesten
Temperatuur 27°C
Vochtigheid 42%
Druk 1007 hPa
Zicht: 7000 m

METAR: ORBI 262300Z 32003KT 7000 NSC 27/13 Q1007 NOSIG

Tijdstip: 02:38 (23:38 UTC)

Verwachting

Dit bericht is 1 uur en het 38 minuten geleden gemaakt, om 22:00 UTC
Verwachting geldig van 27 om 00 UTC tot 27 om 24 UTC
Wind 3 kt uit variabele richting
Zicht: 6000 m

TAF: ORBI 262200Z 2700/2724 VRB03KT 6000 NSC

Waarnemingen en weersverwachtingen van meer dan 4000 vliegvelden (METAR en TAF).

De beschikbare stations zijn de gele en rode punten op de kaart.

Ga met uw muis naar het station om de naam te zien.

Klik dan om waarnemingen en weersverwachtingen te zien.

kaart wijzigen: klik op de groene knoppen met een zwart kruis om in te zoomen, op de groene knop met een streepje om uit te zoomen of op de groene pijlen voor aangrenzende kaarten.


METAR-TAF: